Central City, South Dakota
Current Conditions -  °F | °C
As of 3:35 AM on Saturday 22 Nov 2014 (Local Time) from KSPF Reporting Station
Clear Clear  
Wind Chill: 38°   Ceiling: Unl
Heat Index: 41°   Visibility: 10mi
Dew Point: 23°   Wind: 5mph
Humidity: 49%   Direction: 240°WSW
Pressure: 29.59"   Gusts: NA
Location:  44.253°N, 103.912°W
Report Text: KSPF 221035Z AUTO 24004KT 10SM CLR 05/M05 A2959 RMK AO2
Loading
Personal Weather Stations






























Interactive Weather Map New forecast layout! Learn more

10-Day Weather Forecast

Advertisements
Track Severe Weather on mobile